Hordafor III — LLVC — position and weather

sailwx.info

Track history (hours):
 
Tides and Currents Weather Stations Pressure Air Temp Water Temp Dewpoint Dewpoint Depression Visibility Wind Speed Wind Dir Waves Ship Positions

Hordafor III

Last reported at 2014-Aug-20 15:29 UTC. Time now 2014-Aug-21 18:07 UTC.
Position N 64°51' E 011°12'.

Length 50 m; draft 5.2 m.

Type: Ship. MMSI: 258044000.

Date/timePositionNaut miles runAvg speedWind from/ knotsBaromVisibWave heightAir tempDewpointWater temp
2014-Aug-20 15:29N 64°51' E 011°12'910.0
2014-Aug-20 14:33N 64°57' E 011°28'9410.0
2014-Aug-20 05:14N 66°23' E 012°58'910.7
2014-Aug-20 04:26N 66°31' E 012°58'48 9.8
2014-Aug-19 23:33N 67°11' E 014°05'1010.4
2014-Aug-19 22:34N 67°20' E 014°20'1010.3
2014-Aug-19 21:33N 67°30' E 014°29'1310.2
2014-Aug-19 20:19N 67°42' E 014°31'14 1.4
2014-Aug-19 10:33N 67°28' E 014°28'1010.3
2014-Aug-19 09:33N 67°19' E 014°18'1110.6
2014-Aug-19 08:32N 67°10' E 014°03'1110.3
2014-Aug-19 07:27N 67°01' E 013°44'40 9.9
2014-Aug-19 03:28N 66°26' E 012°59'2310.0
2014-Aug-19 01:10N 66°04' E 012°39'74 9.5
2014-Aug-18 17:23N 64°56' E 011°27'910.6
2014-Aug-18 16:33N 64°50' E 011°12'  
2014-Aug-16 11:32N 60°23' E 005°11'  
2014-Aug-13 11:34N 59°24' E 005°15'1210.4
2014-Aug-13 10:27N 59°13' E 005°21'8 9.2
2014-Aug-13 09:33N 59°07' E 005°32'1110.9
2014-Aug-13 08:34N 59°01' E 005°50'5 5.3
2014-Aug-13 07:34N 58°57' E 005°57'6 5.8
2014-Aug-13 06:33N 59°01' E 005°48'8 7.9
2014-Aug-13 05:33N 58°60' E 005°33'1010.3
2014-Aug-13 04:34N 58°50' E 005°29'23 9.7
2014-Aug-13 02:12N 58°28' E 005°45'710.1
2014-Aug-13 01:34N 58°24' E 005°53'1110.7
2014-Aug-13 00:34N 58°16' E 006°07'1110.7
2014-Aug-12 23:33N 58°09' E 006°22'4 0.1
2014-Aug-11 08:15N 58°07' E 006°30'5 7.5
2014-Aug-11 07:33N 58°11' E 006°22'8 7.6
2014-Aug-11 06:33N 58°16' E 006°12'8 7.7
2014-Aug-11 05:33N 58°21' E 006°00'8 7.8
2014-Aug-11 04:34N 58°26' E 005°50'26 8.7
2014-Aug-11 01:33N 58°48' E 005°24'9 8.7
2014-Aug-11 00:33N 58°57' E 005°19'9 9.1
2014-Aug-10 23:33N 59°06' E 005°19'19 9.5
2014-Aug-10 21:34N 59°25' E 005°15'  
Track history (hours):
 
Tides and Currents Weather Stations Pressure Air Temp Water Temp Dewpoint Dewpoint Depression Visibility Wind Speed Wind Dir Waves Ship Positions

Hordafor III

Last reported at 2014-Aug-20 15:29 UTC. Time now 2014-Aug-21 18:07 UTC.
Position N 64°51' E 011°12'.

Length 50 m; draft 5.2 m.

Type: Ship. MMSI: 258044000.

Date/timePositionNaut miles runAvg speedWind from/ knotsBaromVisibWave heightAir tempDewpointWater temp
2014-Aug-20 15:29N 64°51' E 011°12'910.0
2014-Aug-20 14:33N 64°57' E 011°28'9410.0
2014-Aug-20 05:14N 66°23' E 012°58'910.7
2014-Aug-20 04:26N 66°31' E 012°58'48 9.8
2014-Aug-19 23:33N 67°11' E 014°05'1010.4
2014-Aug-19 22:34N 67°20' E 014°20'1010.3
2014-Aug-19 21:33N 67°30' E 014°29'1310.2
2014-Aug-19 20:19N 67°42' E 014°31'14 1.4
2014-Aug-19 10:33N 67°28' E 014°28'1010.3
2014-Aug-19 09:33N 67°19' E 014°18'1110.6
2014-Aug-19 08:32N 67°10' E 014°03'1110.3
2014-Aug-19 07:27N 67°01' E 013°44'40 9.9
2014-Aug-19 03:28N 66°26' E 012°59'2310.0
2014-Aug-19 01:10N 66°04' E 012°39'74 9.5
2014-Aug-18 17:23N 64°56' E 011°27'910.6
2014-Aug-18 16:33N 64°50' E 011°12'  
2014-Aug-16 11:32N 60°23' E 005°11'  
2014-Aug-13 11:34N 59°24' E 005°15'1210.4
2014-Aug-13 10:27N 59°13' E 005°21'8 9.2
2014-Aug-13 09:33N 59°07' E 005°32'1110.9
2014-Aug-13 08:34N 59°01' E 005°50'5 5.3
2014-Aug-13 07:34N 58°57' E 005°57'6 5.8
2014-Aug-13 06:33N 59°01' E 005°48'8 7.9
2014-Aug-13 05:33N 58°60' E 005°33'1010.3
2014-Aug-13 04:34N 58°50' E 005°29'23 9.7
2014-Aug-13 02:12N 58°28' E 005°45'710.1
2014-Aug-13 01:34N 58°24' E 005°53'1110.7
2014-Aug-13 00:34N 58°16' E 006°07'1110.7
2014-Aug-12 23:33N 58°09' E 006°22'4 0.1
2014-Aug-11 08:15N 58°07' E 006°30'5 7.5
2014-Aug-11 07:33N 58°11' E 006°22'8 7.6
2014-Aug-11 06:33N 58°16' E 006°12'8 7.7
2014-Aug-11 05:33N 58°21' E 006°00'8 7.8
2014-Aug-11 04:34N 58°26' E 005°50'26 8.7
2014-Aug-11 01:33N 58°48' E 005°24'9 8.7
2014-Aug-11 00:33N 58°57' E 005°19'9 9.1
2014-Aug-10 23:33N 59°06' E 005°19'19 9.5
2014-Aug-10 21:34N 59°25' E 005°15'  

Dump ship's entire track history